Time;durP1;ratioP1;P1;durP2;ratioP2;P2;SDS_P1;SDS_P2;PMS_P1;PMS_P2;Temp;Humidity;BMP_temperature;BMP_pressure;BME280_temperature;BME280_humidity;BME280_pressure;Samples;Min_cycle;Max_cycle;Signal;HPM_P1;HPM_P2
2021/08/05 00:01:16;;;;;;;11.50;9.43;;;14.60;99.90;;;;;;5022756;28;20476;-80
2021/08/05 00:03:44;;;;;;;12.27;9.97;;;14.60;99.90;;;;;;5021713;28;20223;-81
2021/08/05 00:06:11;;;;;;;14.87;10.73;;;14.60;99.90;;;;;;5025245;28;20239;-80
2021/08/05 00:08:38;;;;;;;15.75;11.68;;;14.80;99.90;;;;;;5022468;28;20719;-80
2021/08/05 00:11:05;;;;;;;15.37;10.77;;;14.80;99.90;;;;;;5019999;28;20220;-81
2021/08/05 00:13:32;;;;;;;13.10;10.53;;;14.80;99.90;;;;;;5026134;28;20239;-81
2021/08/05 00:15:59;;;;;;;15.25;11.50;;;14.80;99.90;;;;;;5040969;28;20243;-81
2021/08/05 00:18:26;;;;;;;18.35;12.25;;;14.80;99.90;;;;;;5029346;28;20295;-81
2021/08/05 00:20:54;;;;;;;18.73;12.90;;;14.80;99.90;;;;;;5032056;28;20637;-81
2021/08/05 00:23:21;;;;;;;16.30;12.70;;;14.80;99.90;;;;;;5023430;28;20239;-81
2021/08/05 00:25:48;;;;;;;19.40;13.33;;;14.60;99.90;;;;;;5020349;28;20236;-80
2021/08/05 00:28:15;;;;;;;15.40;12.23;;;14.60;99.90;;;;;;5022841;28;20687;-82
2021/08/05 00:30:42;;;;;;;18.40;12.90;;;14.50;99.90;;;;;;5022131;28;20232;-81
2021/08/05 00:33:09;;;;;;;25.00;12.87;;;14.40;99.90;;;;;;5022752;28;20655;-80
2021/08/05 00:35:36;;;;;;;14.87;12.13;;;14.50;99.90;;;;;;5022389;28;20225;-81
2021/08/05 00:38:04;;;;;;;19.83;13.10;;;14.60;99.90;;;;;;5022602;28;20200;-81
2021/08/05 00:40:31;;;;;;;17.77;12.90;;;14.50;99.90;;;;;;5022638;28;20660;-79
2021/08/05 00:42:58;;;;;;;17.10;13.37;;;14.50;99.90;;;;;;5022430;28;20255;-80
2021/08/05 00:45:25;;;;;;;18.80;13.13;;;14.50;99.90;;;;;;5023700;28;20234;-81
2021/08/05 00:47:51;;;;;;;17.43;12.80;;;14.50;99.90;;;;;;5023237;28;20214;-80
2021/08/05 00:50:19;;;;;;;22.53;13.50;;;14.40;99.90;;;;;;5021366;28;20596;-80
2021/08/05 00:52:46;;;;;;;19.43;14.43;;;14.30;99.90;;;;;;5024003;28;20291;-80
2021/08/05 00:55:14;;;;;;;18.90;14.90;;;14.40;99.90;;;;;;5020210;28;20733;-82
2021/08/05 00:57:41;;;;;;;17.07;14.00;;;14.30;99.90;;;;;;5024006;28;20247;-81
2021/08/05 01:00:10;;;;;;;17.33;14.20;;;14.30;99.90;;;;;;5022790;28;20324;-81
2021/08/05 01:02:41;;;;;;;22.73;13.57;;;14.30;99.90;;;;;;5021664;28;20204;-82
2021/08/05 01:05:10;;;;;;;18.60;14.47;;;14.20;99.90;;;;;;5020641;28;20614;-80
2021/08/05 01:07:42;;;;;;;19.30;15.07;;;14.20;99.90;;;;;;5018924;28;20203;-80
2021/08/05 01:10:13;;;;;;;19.17;13.80;;;14.20;99.90;;;;;;5021853;28;20662;-80
2021/08/05 01:12:47;;;;;;;17.23;13.97;;;14.30;99.90;;;;;;5021220;28;20291;-82
2021/08/05 01:15:19;;;;;;;21.63;14.70;;;14.20;99.90;;;;;;5024108;28;20294;-81
2021/08/05 01:17:51;;;;;;;19.30;15.67;;;14.20;99.90;;;;;;5021289;28;20291;-80
2021/08/05 01:20:20;;;;;;;28.40;17.43;;;14.30;99.90;;;;;;5022573;28;20299;-81
2021/08/05 01:23:01;;;;;;;22.17;16.97;;;14.40;99.90;;;;;;5021580;28;20328;-80
2021/08/05 01:25:34;;;;;;;23.07;17.23;;;14.50;99.90;;;;;;5022780;28;20283;-79
2021/08/05 01:28:04;;;;;;;22.50;17.60;;;14.50;99.90;;;;;;5021889;28;20300;-80
2021/08/05 01:30:34;;;;;;;22.40;16.53;;;14.40;99.90;;;;;;5022214;28;20288;-81
2021/08/05 01:33:01;;;;;;;21.67;16.70;;;14.20;99.90;;;;;;5021356;28;20380;-80
2021/08/05 01:35:30;;;;;;;26.93;18.70;;;14.30;99.90;;;;;;5022301;28;20248;-81
2021/08/05 01:37:57;;;;;;;23.27;17.83;;;14.40;99.90;;;;;;5019640;28;20298;-82
2021/08/05 01:40:24;;;;;;;23.30;17.47;;;14.30;99.90;;;;;;5023390;28;20640;-80
2021/08/05 01:42:52;;;;;;;22.43;17.63;;;14.20;99.90;;;;;;5018127;28;20299;-80
2021/08/05 01:45:21;;;;;;;21.48;17.08;;;14.30;99.90;;;;;;5022831;28;20288;-80
2021/08/05 01:47:48;;;;;;;22.37;17.10;;;14.30;99.90;;;;;;5021103;28;20249;-80
2021/08/05 01:50:15;;;;;;;23.67;17.90;;;14.10;99.90;;;;;;5022829;28;20259;-81
2021/08/05 01:52:43;;;;;;;23.80;18.07;;;14.00;99.90;;;;;;5022435;28;20212;-80
2021/08/05 01:55:14;;;;;;;22.87;17.63;;;14.20;99.90;;;;;;5023417;28;20217;-80
2021/08/05 01:57:40;;;;;;;21.57;17.43;;;14.30;99.90;;;;;;5021315;28;20196;-81
2021/08/05 02:00:09;;;;;;;22.03;17.30;;;14.30;99.90;;;;;;5022974;28;20670;-81
2021/08/05 02:02:38;;;;;;;20.53;16.40;;;14.30;99.90;;;;;;5019598;28;20208;-79
2021/08/05 02:05:07;;;;;;;23.60;17.47;;;14.30;99.90;;;;;;5020851;28;20209;-81
2021/08/05 02:07:41;;;;;;;19.83;16.13;;;14.30;99.90;;;;;;5019170;28;20201;-82
2021/08/05 02:10:14;;;;;;;18.60;15.67;;;14.40;99.90;;;;;;5019877;28;20234;-81
2021/08/05 02:12:44;;;;;;;20.07;15.57;;;14.20;99.90;;;;;;5019963;28;20196;-81
2021/08/05 02:15:12;;;;;;;20.95;15.20;;;14.10;99.90;;;;;;5021773;28;20211;-80
2021/08/05 02:17:43;;;;;;;20.23;15.87;;;14.30;99.90;;;;;;5020736;28;20288;-81
2021/08/05 02:20:12;;;;;;;19.48;14.98;;;14.20;99.90;;;;;;5020653;28;20232;-81
2021/08/05 02:22:41;;;;;;;22.00;15.73;;;14.20;99.90;;;;;;5019311;28;20272;-81
2021/08/05 02:25:09;;;;;;;21.87;15.47;;;14.30;99.90;;;;;;5026163;28;20275;-79
2021/08/05 02:27:37;;;;;;;19.40;14.80;;;14.20;99.90;;;;;;5018566;28;20260;-81
2021/08/05 02:30:05;;;;;;;19.67;14.60;;;14.30;99.90;;;;;;5019842;28;20240;-81
2021/08/05 02:32:32;;;;;;;17.33;14.13;;;14.10;99.90;;;;;;5016895;28;20291;-80
2021/08/05 02:35:03;;;;;;;18.63;14.83;;;14.20;99.90;;;;;;5021662;28;20207;-80
2021/08/05 02:37:30;;;;;;;21.60;14.73;;;14.10;99.90;;;;;;5020227;28;20204;-81
2021/08/05 02:39:57;;;;;;;21.50;15.60;;;14.30;99.90;;;;;;5021154;28;20233;-80
2021/08/05 02:42:24;;;;;;;21.07;16.83;;;14.30;99.90;;;;;;5021525;28;20220;-81
2021/08/05 02:44:52;;;;;;;21.47;16.07;;;14.30;99.90;;;;;;5023275;28;20231;-79
2021/08/05 02:47:21;;;;;;;22.77;16.70;;;14.20;99.90;;;;;;5021294;28;20303;-79
2021/08/05 02:49:48;;;;;;;22.80;15.70;;;14.30;99.90;;;;;;5022560;28;20232;-79
2021/08/05 02:52:17;;;;;;;20.27;15.87;;;14.40;99.90;;;;;;5021111;28;20267;-80
2021/08/05 02:54:43;;;;;;;21.87;15.73;;;14.40;99.90;;;;;;5022073;28;20224;-80
2021/08/05 02:57:10;;;;;;;21.43;15.60;;;14.40;99.90;;;;;;5020961;28;20288;-82
2021/08/05 02:59:38;;;;;;;113.73;17.10;;;14.50;99.90;;;;;;5023576;28;20294;-80
2021/08/05 03:02:05;;;;;;;25.70;15.53;;;14.20;99.90;;;;;;5020515;28;20299;-82
2021/08/05 03:04:33;;;;;;;19.90;15.80;;;14.40;99.90;;;;;;5022697;28;20207;-81
2021/08/05 03:07:01;;;;;;;33.60;15.10;;;14.40;99.90;;;;;;5020926;28;20289;-80
2021/08/05 03:09:29;;;;;;;44.93;15.70;;;14.30;99.90;;;;;;5025597;28;20835;-80
2021/08/05 03:11:56;;;;;;;28.87;15.37;;;14.20;99.90;;;;;;5035874;28;20240;-80
2021/08/05 03:14:23;;;;;;;38.57;16.07;;;14.20;99.90;;;;;;5021323;28;20259;-81
2021/08/05 03:16:50;;;;;;;21.47;15.33;;;14.20;99.90;;;;;;5022023;28;20323;-81
2021/08/05 03:19:17;;;;;;;26.65;14.57;;;14.20;99.90;;;;;;5023359;28;20287;-81
2021/08/05 03:21:44;;;;;;;28.75;14.02;;;14.20;99.90;;;;;;5024801;28;20295;-80
2021/08/05 03:24:10;;;;;;;23.65;15.57;;;14.20;99.90;;;;;;5025939;28;20263;-80
2021/08/05 03:26:39;;;;;;;26.67;16.40;;;14.30;99.90;;;;;;5025593;28;20248;-80
2021/08/05 03:29:06;;;;;;;20.37;13.27;;;14.20;99.90;;;;;;5026467;28;20227;-80
2021/08/05 03:31:33;;;;;;;18.13;14.77;;;14.20;99.90;;;;;;5025283;28;20204;-80
2021/08/05 03:34:00;;;;;;;19.20;15.18;;;14.30;99.90;;;;;;5027150;28;20204;-80
2021/08/05 03:36:27;;;;;;;17.90;14.50;;;14.50;99.90;;;;;;5024127;28;20482;-79
2021/08/05 03:38:54;;;;;;;18.23;13.90;;;14.40;99.90;;;;;;5024384;28;20204;-80
2021/08/05 03:41:21;;;;;;;18.53;15.27;;;14.50;99.90;;;;;;5021494;28;20204;-80
2021/08/05 03:43:49;;;;;;;17.17;14.67;;;14.50;99.90;;;;;;5023495;28;20214;-80
2021/08/05 03:46:16;;;;;;;17.23;14.60;;;14.60;99.90;;;;;;5024010;28;20224;-81
2021/08/05 03:48:42;;;;;;;18.83;15.00;;;14.40;99.90;;;;;;5023171;28;20204;-80
2021/08/05 03:51:09;;;;;;;18.00;14.00;;;14.40;99.90;;;;;;5024384;28;20782;-83
2021/08/05 03:53:36;;;;;;;18.43;14.40;;;14.30;99.90;;;;;;5024250;28;20291;-79
2021/08/05 03:56:03;;;;;;;19.67;16.27;;;14.30;99.90;;;;;;5023523;28;20231;-80
2021/08/05 03:58:30;;;;;;;20.13;15.85;;;14.20;99.90;;;;;;5023820;28;20212;-81
2021/08/05 04:00:59;;;;;;;18.58;15.02;;;14.20;99.90;;;;;;5020543;28;20254;-81
2021/08/05 04:03:25;;;;;;;18.43;14.80;;;14.30;99.90;;;;;;5023962;28;20271;-81
2021/08/05 04:05:52;;;;;;;21.20;15.93;;;14.20;99.90;;;;;;5023051;28;20664;-80
2021/08/05 04:08:19;;;;;;;25.48;15.88;;;14.20;99.90;;;;;;5023054;28;20295;-81
2021/08/05 04:10:46;;;;;;;21.75;16.48;;;14.20;99.90;;;;;;5023396;28;20280;-82
2021/08/05 04:13:13;;;;;;;24.13;16.37;;;14.20;99.90;;;;;;5016803;28;20637;-81
2021/08/05 04:15:41;;;;;;;19.65;16.33;;;14.30;99.90;;;;;;5025225;28;20232;-82
2021/08/05 04:18:10;;;;;;;19.02;15.80;;;14.40;99.90;;;;;;5022725;28;20645;-81
2021/08/05 04:20:37;;;;;;;18.63;15.20;;;14.50;99.90;;;;;;5022710;28;20276;-82
2021/08/05 04:23:04;;;;;;;23.50;16.50;;;14.50;99.90;;;;;;5023357;28;20212;-81
2021/08/05 04:25:31;;;;;;;19.05;15.82;;;14.50;99.90;;;;;;5024848;28;20240;-81
2021/08/05 04:27:58;;;;;;;21.35;16.20;;;14.50;99.90;;;;;;5023090;28;20260;-81
2021/08/05 04:30:25;;;;;;;21.83;16.30;;;14.50;99.90;;;;;;5022559;28;20307;-82
2021/08/05 04:32:52;;;;;;;21.93;16.23;;;14.50;99.90;;;;;;5024883;28;20204;-82
2021/08/05 04:35:20;;;;;;;21.98;16.52;;;14.40;99.90;;;;;;5023502;28;20690;-82
2021/08/05 04:37:49;;;;;;;21.95;15.85;;;14.40;99.90;;;;;;5022650;28;20205;-81
2021/08/05 04:40:17;;;;;;;20.93;16.63;;;14.40;99.90;;;;;;5037772;28;20208;-81
2021/08/05 04:42:44;;;;;;;18.38;14.65;;;14.60;99.90;;;;;;5027278;28;20212;-81
2021/08/05 04:45:12;;;;;;;18.77;15.43;;;14.60;99.90;;;;;;5026724;28;20687;-81
2021/08/05 04:47:50;;;;;;;18.75;15.77;;;14.70;99.90;;;;;;5026947;28;20272;-81
2021/08/05 04:50:17;;;;;;;19.60;16.35;;;14.80;99.90;;;;;;5026845;28;20271;-81
2021/08/05 04:52:45;;;;;;;19.45;15.77;;;14.80;99.90;;;;;;5026483;28;20227;-81
2021/08/05 04:55:12;;;;;;;18.33;15.43;;;14.70;99.90;;;;;;5026000;28;20235;-81
2021/08/05 04:57:47;;;;;;;20.40;15.85;;;14.90;99.90;;;;;;5025078;28;20608;-81
2021/08/05 05:00:14;;;;;;;17.73;15.43;;;14.80;99.90;;;;;;5037326;28;20199;-81
2021/08/05 05:02:41;;;;;;;17.45;14.45;;;14.80;99.90;;;;;;5046564;28;20250;-81
2021/08/05 05:05:08;;;;;;;19.43;15.60;;;14.80;99.90;;;;;;5032400;28;20243;-81
2021/08/05 05:07:35;;;;;;;31.27;28.40;;;14.90;99.90;;;;;;5022669;28;20262;-81
2021/08/05 05:10:04;;;;;;;19.10;15.82;;;14.80;99.90;;;;;;5021076;28;20504;-81
2021/08/05 05:12:31;;;;;;;19.10;15.55;;;14.90;99.90;;;;;;5023414;28;20235;-82
2021/08/05 05:14:58;;;;;;;20.55;15.40;;;15.00;99.90;;;;;;5023593;28;20282;-81
2021/08/05 05:17:24;;;;;;;18.50;15.77;;;14.90;99.90;;;;;;5025471;28;20239;-81
2021/08/05 05:19:51;;;;;;;19.05;15.05;;;15.00;99.90;;;;;;5024449;28;20235;-82
2021/08/05 05:22:18;;;;;;;21.00;16.30;;;15.00;99.90;;;;;;5025068;28;20200;-81
2021/08/05 05:24:45;;;;;;;19.95;15.57;;;15.00;99.90;;;;;;5024389;28;20296;-82
2021/08/05 05:27:14;;;;;;;20.75;16.00;;;15.10;99.90;;;;;;5024426;28;20324;-82
2021/08/05 05:29:41;;;;;;;25.15;17.50;;;15.10;99.90;;;;;;5023824;28;20299;-82
2021/08/05 05:32:08;;;;;;;21.42;18.35;;;15.30;99.90;;;;;;5024179;28;20207;-82
2021/08/05 05:34:35;;;;;;;21.98;17.98;;;15.40;99.90;;;;;;5024063;28;20193;-82
2021/08/05 05:37:03;;;;;;;21.92;16.55;;;15.40;99.90;;;;;;5023968;28;20276;-82
2021/08/05 05:39:30;;;;;;;27.08;18.05;;;15.20;99.90;;;;;;5023444;28;20208;-82
2021/08/05 05:41:57;;;;;;;21.30;17.25;;;15.20;99.90;;;;;;5023675;28;20208;-81
2021/08/05 05:44:25;;;;;;;23.58;17.98;;;15.10;99.90;;;;;;5023340;28;20208;-81
2021/08/05 05:46:52;;;;;;;23.13;17.05;;;15.00;99.90;;;;;;5024080;28;20251;-81
2021/08/05 05:49:19;;;;;;;21.55;17.63;;;15.20;99.90;;;;;;5023084;28;20275;-81
2021/08/05 05:51:45;;;;;;;23.90;17.70;;;15.20;99.90;;;;;;5023811;28;20220;-81
2021/08/05 05:54:12;;;;;;;28.38;18.35;;;15.30;99.90;;;;;;5023712;28;20275;-82
2021/08/05 05:56:39;;;;;;;24.75;18.90;;;15.40;99.90;;;;;;5022942;28;20302;-80
2021/08/05 05:59:06;;;;;;;24.02;17.73;;;15.40;99.90;;;;;;5024362;28;20196;-82
2021/08/05 06:01:35;;;;;;;22.98;17.13;;;15.40;99.90;;;;;;5023729;28;20251;-82
2021/08/05 06:04:02;;;;;;;25.58;18.17;;;15.50;99.90;;;;;;5023813;28;20217;-81
2021/08/05 06:06:29;;;;;;;24.05;18.15;;;15.50;99.90;;;;;;5024183;28;20308;-81
2021/08/05 06:08:56;;;;;;;23.08;18.33;;;15.50;99.90;;;;;;5023647;28;20280;-81
2021/08/05 06:11:26;;;;;;;26.73;19.70;;;15.50;99.90;;;;;;5022936;28;20227;-81
2021/08/05 06:13:53;;;;;;;25.20;19.00;;;15.50;99.90;;;;;;5024295;28;20216;-82
2021/08/05 06:16:20;;;;;;;25.88;20.95;;;15.60;99.90;;;;;;5023245;28;20230;-81
2021/08/05 06:18:48;;;;;;;25.58;20.02;;;15.70;99.90;;;;;;5023284;28;20707;-81
2021/08/05 06:21:15;;;;;;;24.02;20.10;;;15.60;99.90;;;;;;5017559;28;20210;-81
2021/08/05 06:23:42;;;;;;;24.38;20.00;;;15.70;99.90;;;;;;5009185;28;20201;-81
2021/08/05 06:26:09;;;;;;;27.02;20.63;;;15.60;99.90;;;;;;5018668;28;20251;-81
2021/08/05 06:28:37;;;;;;;23.98;20.02;;;15.60;99.90;;;;;;5021469;28;20680;-81
2021/08/05 06:31:04;;;;;;;24.02;18.83;;;15.60;99.90;;;;;;5022688;28;20591;-80
2021/08/05 06:33:32;;;;;;;26.55;20.90;;;15.70;99.90;;;;;;5035077;23;20273;-82
2021/08/05 06:36:00;;;;;;;25.13;19.13;;;15.60;99.90;;;;;;5025895;28;20235;-86
2021/08/05 06:38:27;;;;;;;25.42;20.98;;;15.80;99.90;;;;;;5014356;28;20271;-85
2021/08/05 06:40:53;;;;;;;27.23;21.25;;;15.70;99.90;;;;;;5015630;28;20635;-81
2021/08/05 06:43:20;;;;;;;26.08;21.35;;;15.70;99.90;;;;;;4999693;28;20251;-82
2021/08/05 06:45:47;;;;;;;26.88;21.95;;;15.90;99.90;;;;;;4995658;28;20697;-83
2021/08/05 06:48:14;;;;;;;26.88;20.75;;;15.80;99.90;;;;;;5010420;28;20208;-82
2021/08/05 06:50:41;;;;;;;31.90;23.35;;;15.90;99.90;;;;;;5015194;28;20227;-86
2021/08/05 06:53:09;;;;;;;29.73;23.50;;;15.90;99.90;;;;;;5012037;28;20287;-81
2021/08/05 06:55:36;;;;;;;29.33;23.35;;;15.90;99.90;;;;;;5024686;28;20292;-83
2021/08/05 06:58:03;;;;;;;27.17;22.50;;;16.00;99.90;;;;;;5010534;28;20291;-81
2021/08/05 07:00:30;;;;;;;29.95;23.05;;;15.90;99.90;;;;;;5022205;28;20206;-81
2021/08/05 07:02:57;;;;;;;32.05;23.80;;;15.90;99.90;;;;;;5016182;28;20299;-82
2021/08/05 07:05:24;;;;;;;37.22;24.88;;;16.00;99.90;;;;;;5009880;28;20228;-82
2021/08/05 07:07:54;;;;;;;32.08;24.50;;;15.90;99.90;;;;;;5020678;28;20212;-81
2021/08/05 07:10:23;;;;;;;27.35;22.25;;;16.00;99.90;;;;;;5000302;28;20228;-84
2021/08/05 07:12:50;;;;;;;29.48;24.55;;;16.10;99.90;;;;;;5012600;28;20286;-83
2021/08/05 07:15:16;;;;;;;28.77;23.02;;;16.10;99.90;;;;;;5021805;28;20680;-82
2021/08/05 07:17:45;;;;;;;27.27;21.55;;;16.10;99.90;;;;;;5020301;28;20218;-84
2021/08/05 07:20:12;;;;;;;27.98;22.15;;;16.20;99.90;;;;;;5004843;28;20205;-83
2021/08/05 07:22:40;;;;;;;27.42;22.63;;;16.30;99.90;;;;;;5009539;28;20211;-82
2021/08/05 07:25:08;;;;;;;27.70;21.92;;;16.30;99.90;;;;;;5006792;28;20228;-81
2021/08/05 07:27:37;;;;;;;27.05;21.95;;;16.30;99.90;;;;;;5010252;28;20738;-82
2021/08/05 07:30:06;;;;;;;25.75;21.15;;;16.50;99.90;;;;;;5007230;28;20211;-84
2021/08/05 07:32:33;;;;;;;24.48;21.00;;;16.50;99.90;;;;;;5010404;28;20315;-81
2021/08/05 07:34:59;;;;;;;23.10;19.08;;;16.50;99.90;;;;;;5008819;28;20205;-85
2021/08/05 07:37:27;;;;;;;22.83;18.55;;;16.60;99.90;;;;;;5009150;28;20299;-84
2021/08/05 07:39:54;;;;;;;23.08;19.80;;;16.60;99.90;;;;;;5021572;28;20196;-84
2021/08/05 07:42:21;;;;;;;24.27;20.58;;;16.70;99.90;;;;;;5012701;28;20215;-81
2021/08/05 07:44:49;;;;;;;26.70;20.83;;;16.70;99.90;;;;;;5013011;28;20490;-81
2021/08/05 07:47:16;;;;;;;26.00;20.73;;;16.70;99.90;;;;;;5020345;28;20334;-82
2021/08/05 07:49:43;;;;;;;24.45;20.75;;;16.70;99.90;;;;;;5011722;28;20316;-81
2021/08/05 07:52:10;;;;;;;26.10;22.05;;;16.80;99.90;;;;;;5019362;28;20224;-83
2021/08/05 07:54:38;;;;;;;24.52;21.48;;;16.90;99.90;;;;;;5022785;28;20231;-81
2021/08/05 07:57:05;;;;;;;25.30;21.48;;;16.80;99.90;;;;;;5017151;28;20233;-81
2021/08/05 07:59:32;;;;;;;24.65;21.15;;;16.90;99.90;;;;;;5001320;28;20197;-82
2021/08/05 08:02:00;;;;;;;25.40;20.58;;;16.80;99.90;;;;;;5003595;28;20601;-81
2021/08/05 08:04:27;;;;;;;25.05;20.50;;;17.00;99.90;;;;;;5014899;28;20292;-82
2021/08/05 08:06:54;;;;;;;26.17;21.20;;;17.00;99.90;;;;;;4999440;28;20785;-86
2021/08/05 08:09:21;;;;;;;24.55;21.02;;;17.10;99.90;;;;;;5001649;28;20201;-82
2021/08/05 08:11:48;;;;;;;23.38;20.55;;;17.10;99.90;;;;;;4997935;28;20236;-84
2021/08/05 08:14:15;;;;;;;25.30;20.73;;;17.30;99.90;;;;;;5000220;28;20296;-83
2021/08/05 08:16:41;;;;;;;22.60;20.15;;;17.50;99.90;;;;;;4997162;28;20311;-82
2021/08/05 08:19:10;;;;;;;25.08;21.20;;;17.60;99.90;;;;;;5014487;28;20236;-86
2021/08/05 08:21:37;;;;;;;23.58;19.00;;;17.70;99.90;;;;;;5017479;28;20472;-82
2021/08/05 08:24:04;;;;;;;23.60;19.05;;;17.70;99.90;;;;;;5011463;28;20227;-81
2021/08/05 08:26:31;;;;;;;21.73;19.05;;;17.80;99.90;;;;;;5017332;28;20708;-81
2021/08/05 08:28:58;;;;;;;26.95;19.48;;;17.70;99.90;;;;;;5003286;28;20256;-82
2021/08/05 08:31:25;;;;;;;22.20;18.58;;;17.70;99.90;;;;;;4998191;28;20263;-83
2021/08/05 08:33:52;;;;;;;23.05;18.92;;;17.70;99.90;;;;;;5013742;28;20219;-81
2021/08/05 08:36:20;;;;;;;22.08;19.30;;;17.70;99.90;;;;;;5015168;28;20774;-82
2021/08/05 08:38:47;;;;;;;21.52;18.23;;;17.80;99.90;;;;;;5007696;28;20630;-84
2021/08/05 08:41:14;;;;;;;23.88;19.58;;;17.70;99.90;;;;;;5016788;28;20217;-82
2021/08/05 08:43:41;;;;;;;24.88;20.50;;;17.80;99.90;;;;;;4998893;28;20209;-86
2021/08/05 08:46:10;;;;;;;23.27;19.85;;;18.00;99.90;;;;;;4995506;28;20324;-82
2021/08/05 08:48:38;;;;;;;21.25;17.77;;;18.00;99.90;;;;;;5013026;28;20204;-82
2021/08/05 08:51:05;;;;;;;23.70;18.13;;;18.10;99.90;;;;;;5016462;28;20539;-82
2021/08/05 08:53:39;;;;;;;21.13;17.17;;;18.10;99.90;;;;;;5002259;28;20211;-82
2021/08/05 08:56:07;;;;;;;23.15;18.98;;;18.20;99.90;;;;;;5010968;28;20216;-82
2021/08/05 08:58:35;;;;;;;21.50;18.02;;;18.30;99.90;;;;;;5005454;28;20222;-82
2021/08/05 09:01:01;;;;;;;23.60;19.55;;;18.40;99.90;;;;;;5016430;28;20299;-82
2021/08/05 09:03:29;;;;;;;21.17;18.63;;;18.50;99.90;;;;;;5008226;28;20208;-82
2021/08/05 09:05:56;;;;;;;22.23;19.30;;;18.40;99.90;;;;;;5001914;28;20582;-81
2021/08/05 09:08:22;;;;;;;24.88;19.65;;;18.40;99.90;;;;;;5016734;28;20204;-82
2021/08/05 09:10:54;;;;;;;25.17;20.27;;;18.60;99.90;;;;;;5004757;28;20300;-84
2021/08/05 09:13:21;;;;;;;23.85;20.90;;;18.60;99.90;;;;;;5010822;28;20208;-84
2021/08/05 09:15:48;;;;;;;24.60;20.45;;;18.70;99.90;;;;;;5016844;28;20656;-82
2021/08/05 09:18:31;;;;;;;22.98;19.85;;;18.80;99.90;;;;;;5015734;28;20311;-81
2021/08/05 09:21:12;;;;;;;25.27;20.58;;;18.70;99.90;;;;;;5015979;28;20692;-85
2021/08/05 09:23:55;;;;;;;24.83;20.65;;;18.70;99.90;;;;;;5019541;28;20644;-82
2021/08/05 09:26:36;;;;;;;24.27;19.85;;;18.70;99.90;;;;;;4996044;28;20229;-85
2021/08/05 09:29:05;;;;;;;22.70;19.25;;;18.70;99.90;;;;;;5007513;28;20204;-82
2021/08/05 09:31:34;;;;;;;22.73;18.45;;;18.80;99.90;;;;;;5005802;28;20209;-82
2021/08/05 09:34:02;;;;;;;23.25;19.23;;;19.00;99.90;;;;;;5016144;28;20763;-82
2021/08/05 09:36:29;;;;;;;21.02;18.38;;;19.00;99.90;;;;;;5013224;28;20234;-83
2021/08/05 09:38:56;;;;;;;22.75;17.55;;;19.10;99.90;;;;;;4996794;28;20212;-85
2021/08/05 09:41:23;;;;;;;24.33;18.67;;;19.30;99.90;;;;;;5011625;28;20688;-83
2021/08/05 09:44:01;;;;;;;21.63;17.92;;;19.50;99.90;;;;;;5012409;28;20305;-85
2021/08/05 09:46:32;;;;;;;19.42;17.30;;;19.60;99.90;;;;;;4998298;28;20221;-86
2021/08/05 09:49:00;;;;;;;20.50;17.27;;;19.60;99.90;;;;;;5014740;28;20240;-82
2021/08/05 09:51:27;;;;;;;19.55;16.88;;;19.80;99.90;;;;;;5007643;28;20225;-85
2021/08/05 09:53:58;;;;;;;18.77;16.50;;;20.10;99.90;;;;;;5007782;28;20272;-81
2021/08/05 09:56:25;;;;;;;19.15;15.88;;;20.50;99.90;;;;;;5011789;28;20218;-82
2021/08/05 09:59:03;;;;;;;15.98;13.63;;;20.60;99.90;;;;;;5001195;28;20201;-84
2021/08/05 10:01:30;;;;;;;18.83;15.65;;;21.00;99.90;;;;;;5008414;28;20203;-82
2021/08/05 10:03:57;;;;;;;17.95;15.80;;;21.50;99.90;;;;;;5008317;28;20197;-83
2021/08/05 10:06:24;;;;;;;16.42;13.15;;;21.30;99.90;;;;;;4998108;28;20320;-82
2021/08/05 10:08:51;;;;;;;15.23;13.55;;;21.20;99.90;;;;;;5003448;28;20291;-85
2021/08/05 10:11:17;;;;;;;16.88;13.23;;;21.30;99.90;;;;;;5005426;28;20215;-82
2021/08/05 10:13:44;;;;;;;16.35;14.27;;;21.90;99.90;;;;;;5007481;28;20660;-82
2021/08/05 10:16:13;;;;;;;15.57;13.70;;;21.90;99.90;;;;;;5007021;28;20287;-82
2021/08/05 10:18:42;;;;;;;16.15;13.27;;;21.80;99.90;;;;;;5004686;28;20266;-81
2021/08/05 10:21:12;;;;;;;13.13;11.73;;;21.80;99.90;;;;;;5004586;28;20460;-81
2021/08/05 10:23:42;;;;;;;12.77;10.90;;;22.40;99.90;;;;;;5006560;28;20663;-82
2021/08/05 10:26:11;;;;;;;12.07;10.77;;;22.40;99.90;;;;;;5013205;28;20251;-82
2021/08/05 10:28:39;;;;;;;11.00;9.93;;;21.90;99.90;;;;;;5011437;28;20212;-82
2021/08/05 10:31:10;;;;;;;11.50;10.30;;;21.90;99.90;;;;;;5013563;28;20717;-81
2021/08/05 10:33:41;;;;;;;12.65;10.40;;;22.20;99.90;;;;;;5006967;28;20248;-82
2021/08/05 10:36:09;;;;;;;11.30;10.07;;;22.40;99.90;;;;;;5007004;28;20232;-84
2021/08/05 10:38:36;;;;;;;12.50;10.82;;;22.30;99.90;;;;;;5012925;28;20213;-82
2021/08/05 10:41:04;;;;;;;9.43;7.35;;;22.10;99.90;;;;;;5008961;28;20208;-85
2021/08/05 10:43:31;;;;;;;8.50;7.60;;;21.90;99.90;;;;;;5014632;28;20653;-82
2021/08/05 10:45:58;;;;;;;7.78;6.97;;;22.30;99.90;;;;;;5015043;28;20226;-83
2021/08/05 10:48:25;;;;;;;8.27;7.47;;;22.80;99.90;;;;;;5013895;28;20272;-81
2021/08/05 10:50:58;;;;;;;8.45;7.68;;;22.70;99.90;;;;;;5009688;28;20218;-83
2021/08/05 10:53:45;;;;;;;9.13;8.18;;;22.60;99.90;;;;;;5010100;28;20603;-81
2021/08/05 10:56:22;;;;;;;8.75;7.93;;;22.60;99.90;;;;;;5013661;28;20224;-84
2021/08/05 10:59:05;;;;;;;10.13;9.13;;;22.70;99.90;;;;;;5000467;28;20263;-82
2021/08/05 11:01:53;;;;;;;9.90;8.88;;;22.20;99.90;;;;;;5013718;28;20623;-84
2021/08/05 11:04:45;;;;;;;8.85;7.93;;;22.40;99.90;;;;;;5004416;28;20200;-84
2021/08/05 11:07:32;;;;;;;7.90;7.10;;;22.40;99.90;;;;;;5014575;28;20235;-83
2021/08/05 11:10:33;;;;;;;8.35;7.55;;;22.70;99.90;;;;;;5015180;28;20695;-82
2021/08/05 11:13:15;;;;;;;7.65;6.70;;;23.40;99.90;;;;;;4946703;29;20353;-84
2021/08/05 11:15:52;;;;;;;7.18;6.57;;;24.10;99.90;;;;;;4950522;29;20317;-86
2021/08/05 11:18:24;;;;;;;7.35;6.47;;;24.30;99.90;;;;;;4982981;28;20231;-82
2021/08/05 11:21:36;;;;;;;7.13;6.53;;;24.10;99.90;;;;;;5014602;28;20231;-83
2021/08/05 11:24:05;;;;;;;7.07;6.47;;;23.70;99.90;;;;;;4995560;28;20716;-82
2021/08/05 11:26:32;;;;;;;8.38;7.15;;;23.60;99.90;;;;;;5010487;28;20581;-82
2021/08/05 11:28:59;;;;;;;7.95;7.15;;;23.00;99.90;;;;;;5014044;28;20200;-83
2021/08/05 11:31:38;;;;;;;8.32;6.85;;;23.40;99.90;;;;;;5013128;28;20247;-83
2021/08/05 11:34:12;;;;;;;7.22;6.53;;;23.30;99.90;;;;;;5010425;28;20634;-83
2021/08/05 11:36:49;;;;;;;6.30;5.70;;;24.00;99.90;;;;;;4994722;28;20230;-83
2021/08/05 11:39:29;;;;;;;7.07;6.38;;;24.30;99.90;;;;;;5006745;28;20264;-82
2021/08/05 11:42:16;;;;;;;7.13;6.50;;;24.90;99.90;;;;;;5012946;28;20644;-82
2021/08/05 11:44:46;;;;;;;6.65;6.05;;;23.90;99.90;;;;;;5011107;28;20240;-86
2021/08/05 11:47:15;;;;;;;7.60;6.88;;;24.60;99.90;;;;;;5012903;28;20601;-86
2021/08/05 11:49:44;;;;;;;7.10;6.35;;;24.00;99.90;;;;;;5017847;28;20295;-82
2021/08/05 11:52:13;;;;;;;6.50;5.90;;;24.00;99.90;;;;;;5011326;28;20224;-84
2021/08/05 11:54:43;;;;;;;6.47;5.88;;;24.10;99.90;;;;;;5016212;28;20223;-82
2021/08/05 11:57:12;;;;;;;6.57;5.88;;;23.80;99.90;;;;;;5011641;28;20216;-83
2021/08/05 11:59:40;;;;;;;6.72;6.13;;;24.40;99.90;;;;;;5016363;28;20700;-82
2021/08/05 12:02:09;;;;;;;5.80;5.30;;;24.70;99.90;;;;;;5013258;28;20295;-87
2021/08/05 12:04:37;;;;;;;5.63;5.13;;;25.60;99.90;;;;;;4995843;28;20213;-82
2021/08/05 12:07:23;;;;;;;6.68;5.97;;;25.80;99.90;;;;;;5013561;28;20311;-82
2021/08/05 12:10:00;;;;;;;7.45;5.10;;;25.50;99.90;;;;;;5016523;28;20224;-82
2021/08/05 12:12:28;;;;;;;5.20;4.80;;;26.10;99.90;;;;;;5008527;28;20741;-82
2021/08/05 12:14:57;;;;;;;5.80;5.30;;;26.40;99.90;;;;;;5018071;28;20494;-82
2021/08/05 12:17:44;;;;;;;4.95;4.55;;;26.00;99.90;;;;;;5016478;28;20310;-83
2021/08/05 12:20:16;;;;;;;5.18;4.78;;;25.70;99.90;;;;;;5012680;28;20268;-84
2021/08/05 12:22:44;;;;;;;4.78;4.40;;;26.50;99.90;;;;;;5014590;28;20734;-82
2021/08/05 12:25:26;;;;;;;4.15;3.85;;;26.50;99.90;;;;;;5014139;28;20227;-84
2021/08/05 12:27:59;;;;;;;4.68;4.38;;;26.60;99.90;;;;;;5005208;28;20276;-83
2021/08/05 12:30:44;;;;;;;5.15;4.40;;;25.60;99.90;;;;;;5009482;28;20212;-86
2021/08/05 12:33:14;;;;;;;6.38;4.45;;;24.80;99.90;;;;;;5014094;28;20307;-82
2021/08/05 12:35:42;;;;;;;5.00;4.60;;;24.70;99.90;;;;;;5012998;28;20311;-82
2021/08/05 12:38:11;;;;;;;5.03;4.53;;;25.20;99.90;;;;;;5016503;28;20207;-83
2021/08/05 12:40:44;;;;;;;4.50;4.15;;;25.20;99.90;;;;;;5012337;28;20210;-84